aviador You're here:

UBBL Decoded Metar

in
Report Time2017-11-22 21:00:00
UTC Time2017-11-22 21:56:33
Flight Rules mvfr MVFR
WindVRB at 03 kt
Visibility6000 m
Phenomena:Light Rain
Clouds:Overcast 015 Hf
Expected CloudBase > 400 ft AGL from Temp-Dew spread
Ceiling1,500 ft
Temp10°C
Dew Point09°C (94% RH)
AAT8.7°C
QNH1014 hPa
Raw Report
METAR UBBL 222100Z VRB03KT 6000 -RA OVC015 10/09 Q1014
R33/CLRD// NOSIG RMK MT OBSC=

Extra information for UBBL:More info

Social comments